Time;durP1;ratioP1;P1;durP2;ratioP2;P2;SDS_P1;SDS_P2;PMS_P1;PMS_P2;Temp;Humidity;BMP_temperature;BMP_pressure;BME280_temperature;BME280_humidity;BME280_pressure;Samples;Min_cycle;Max_cycle;Signal;HPM_P1;HPM_P2
2022/07/17 00:01:43;;;;;;;4.00;2.30;;;;;;;12.28;75.44;100390.27;107592;1271;139324;-79
2022/07/17 00:04:16;;;;;;;5.20;2.40;;;;;;;12.27;75.49;100388.23;106829;1273;97958;-78
2022/07/17 00:06:49;;;;;;;3.50;1.90;;;;;;;12.25;75.44;100387.77;107593;1272;138909;-79
2022/07/17 00:09:21;;;;;;;6.00;2.30;;;;;;;12.25;75.55;100392.68;107715;1273;112481;-77
2022/07/17 00:11:53;;;;;;;4.40;2.10;;;;;;;12.22;75.53;100392.24;107726;1273;106455;-78
2022/07/17 00:14:27;;;;;;;3.10;2.10;;;;;;;12.22;75.59;100396.09;107331;1273;138543;-78
2022/07/17 00:17:00;;;;;;;8.50;2.20;;;;;;;12.25;75.55;100403.32;107693;1271;96134;-78
2022/07/17 00:19:34;;;;;;;5.10;1.90;;;;;;;12.27;75.66;100401.13;107613;1271;138574;-78
2022/07/17 00:22:06;;;;;;;6.70;2.50;;;;;;;12.30;75.64;100406.25;107271;1273;112578;-78
2022/07/17 00:24:39;;;;;;;3.50;2.10;;;;;;;12.31;75.65;100407.95;106445;1273;139062;-77
2022/07/17 00:27:11;;;;;;;5.10;2.50;;;;;;;12.32;75.64;100406.84;106175;1272;109061;-78
2022/07/17 00:29:43;;;;;;;5.70;2.50;;;;;;;12.33;75.46;100407.33;106797;1273;97363;-78
2022/07/17 00:32:16;;;;;;;6.30;2.40;;;;;;;12.34;75.61;100414.64;107596;1273;139753;-78
2022/07/17 00:34:49;;;;;;;5.90;2.60;;;;;;;12.36;75.64;100419.59;107722;1273;112440;-78
2022/07/17 00:37:22;;;;;;;4.60;2.30;;;;;;;12.38;75.71;100422.48;107558;1273;139221;-78
2022/07/17 00:39:55;;;;;;;6.40;2.40;;;;;;;12.39;75.54;100423.17;107423;1273;108882;-77
2022/07/17 00:42:27;;;;;;;3.10;2.10;;;;;;;12.37;75.54;100421.99;107557;1273;140218;-78
2022/07/17 00:45:00;;;;;;;5.60;2.30;;;;;;;12.37;75.57;100427.23;106610;1273;97813;-78
2022/07/17 00:47:33;;;;;;;6.40;2.50;;;;;;;12.37;75.55;100424.46;106282;1272;112651;-77
2022/07/17 00:50:07;;;;;;;5.10;2.40;;;;;;;12.38;75.69;100424.07;106049;1271;139591;-77
2022/07/17 00:52:39;;;;;;;4.20;2.30;;;;;;;12.38;75.63;100429.48;107687;1271;108943;-77
2022/07/17 00:55:14;;;;;;;6.50;2.50;;;;;;;12.37;75.69;100434.20;107569;1273;138891;-77
2022/07/17 00:58:08;;;;;;;5.90;2.70;;;;;;;12.35;75.64;100435.34;106438;1273;97852;-77
2022/07/17 01:00:41;;;;;;;3.80;2.30;;;;;;;12.34;75.64;100435.23;106244;1271;139813;-78
2022/07/17 01:03:15;;;;;;;4.60;2.60;;;;;;;12.30;75.62;100440.08;106169;1273;107893;-76
2022/07/17 01:05:47;;;;;;;5.50;2.60;;;;;;;12.26;75.80;100447.89;106610;1271;109428;-77
2022/07/17 01:08:20;;;;;;;4.50;2.60;;;;;;;12.21;75.87;100453.98;106960;1273;138965;-76
2022/07/17 01:10:53;;;;;;;6.40;2.80;;;;;;;12.19;76.00;100454.41;106178;1272;97835;-77
2022/07/17 01:13:26;;;;;;;6.30;3.00;;;;;;;12.15;76.07;100452.80;106005;1273;139459;-77
2022/07/17 01:16:00;;;;;;;5.70;2.90;;;;;;;12.11;76.22;100450.52;106367;1271;107645;-76
2022/07/17 01:18:32;;;;;;;7.40;3.10;;;;;;;12.06;76.28;100451.36;107611;1273;139588;-77
2022/07/17 01:21:08;;;;;;;8.70;2.90;;;;;;;12.02;76.33;100452.21;107089;1273;97786;-77
2022/07/17 01:23:40;;;;;;;5.70;3.00;;;;;;;11.97;76.38;100456.05;107721;1270;97180;-77
2022/07/17 01:26:13;;;;;;;7.30;3.20;;;;;;;11.94;76.55;100455.62;107616;1271;139764;-77
2022/07/17 01:28:46;;;;;;;6.10;3.40;;;;;;;11.91;76.65;100460.09;107716;1273;109073;-77
2022/07/17 01:31:18;;;;;;;5.80;2.90;;;;;;;11.88;76.77;100456.20;107101;1273;139254;-77
2022/07/17 01:33:52;;;;;;;10.10;3.40;;;;;;;11.87;76.90;100456.59;106919;1273;97948;-76
2022/07/17 01:36:26;;;;;;;6.80;3.80;;;;;;;11.84;76.89;100460.85;107529;1273;140219;-77
2022/07/17 01:38:59;;;;;;;5.80;3.20;;;;;;;11.82;76.92;100462.66;106530;1273;112031;-76
2022/07/17 01:41:31;;;;;;;11.50;3.90;;;;;;;11.79;77.10;100460.31;107692;1273;109135;-78
2022/07/17 01:44:04;;;;;;;5.70;3.30;;;;;;;11.76;77.20;100464.55;107540;1273;138901;-78
2022/07/17 01:46:36;;;;;;;6.90;3.70;;;;;;;11.74;77.33;100460.46;107710;1273;95867;-78
2022/07/17 01:49:09;;;;;;;8.60;3.80;;;;;;;11.72;77.26;100462.98;106513;1273;142259;-77
2022/07/17 01:51:41;;;;;;;11.60;3.70;;;;;;;11.70;77.41;100464.78;106528;1272;113634;-76
2022/07/17 01:54:14;;;;;;;5.10;3.30;;;;;;;11.67;77.47;100464.34;107370;1273;139914;-76
2022/07/17 01:56:46;;;;;;;6.90;3.50;;;;;;;11.66;77.49;100467.49;106514;1272;109009;-77
2022/07/17 01:59:19;;;;;;;7.00;3.50;;;;;;;11.65;77.64;100474.66;107670;1272;95929;-76
2022/07/17 02:01:53;;;;;;;5.30;3.40;;;;;;;11.64;77.65;100474.19;107177;1262;138457;-77
2022/07/17 02:04:26;;;;;;;10.10;3.60;;;;;;;11.64;77.89;100476.48;106245;1271;112517;-77
2022/07/17 02:06:59;;;;;;;9.60;3.50;;;;;;;11.61;77.82;100480.73;106101;1271;138712;-76
2022/07/17 02:09:31;;;;;;;5.40;3.50;;;;;;;11.61;77.98;100482.67;106256;1271;109010;-76
2022/07/17 02:12:05;;;;;;;7.70;3.60;;;;;;;11.60;78.15;100483.40;106240;1271;97811;-77
2022/07/17 02:14:37;;;;;;;9.30;3.50;;;;;;;11.59;78.31;100486.20;107819;1271;95856;-77
2022/07/17 02:17:10;;;;;;;7.10;3.60;;;;;;;11.57;78.22;100490.27;107798;1271;112296;-77
2022/07/17 02:19:42;;;;;;;8.70;3.50;;;;;;;11.55;78.41;100490.34;107701;1271;139114;-77
2022/07/17 02:22:16;;;;;;;7.30;3.70;;;;;;;11.55;78.41;100486.88;107835;1270;108795;-77
2022/07/17 02:24:48;;;;;;;11.50;3.90;;;;;;;11.55;78.41;100485.66;106248;1271;139781;-76
2022/07/17 02:27:20;;;;;;;6.20;3.60;;;;;;;11.54;78.64;100486.21;106245;1271;97800;-76
2022/07/17 02:29:53;;;;;;;5.50;3.20;;;;;;;11.53;78.60;100487.11;106259;1271;112506;-77
2022/07/17 02:32:26;;;;;;;10.60;4.10;;;;;;;11.52;78.66;100484.36;106094;1271;139685;-77
2022/07/17 02:34:58;;;;;;;10.20;4.30;;;;;;;11.51;78.83;100483.35;106194;1271;108856;-77
2022/07/17 02:37:31;;;;;;;7.50;3.80;;;;;;;11.49;78.94;100482.71;106055;1272;139128;-77
2022/07/17 02:40:04;;;;;;;7.70;3.50;;;;;;;11.47;79.04;100485.19;106646;1271;97854;-76
2022/07/17 02:42:37;;;;;;;6.30;3.90;;;;;;;11.45;79.14;100485.09;106199;1271;138721;-77
2022/07/17 02:45:11;;;;;;;7.00;4.50;;;;;;;11.44;79.25;100489.65;106276;1271;107853;-77
2022/07/17 02:47:44;;;;;;;7.60;4.20;;;;;;;11.43;79.42;100490.18;106875;1271;107780;-78
2022/07/17 02:50:16;;;;;;;9.90;4.20;;;;;;;11.43;79.54;100487.09;107688;1271;138640;-78
2022/07/17 02:52:50;;;;;;;8.90;4.40;;;;;;;11.42;79.56;100489.37;107811;1271;96084;-77
2022/07/17 02:55:22;;;;;;;8.70;4.10;;;;;;;11.42;79.67;100489.70;107710;1271;139079;-77
2022/07/17 02:57:54;;;;;;;10.80;4.30;;;;;;;11.43;79.67;100488.80;107802;1271;107784;-78
2022/07/17 03:00:27;;;;;;;12.30;4.50;;;;;;;11.45;79.80;100492.02;107708;1271;138987;-78
2022/07/17 03:02:59;;;;;;;9.80;4.20;;;;;;;11.48;79.83;100492.13;107794;1271;96388;-78
2022/07/17 03:05:32;;;;;;;7.10;4.20;;;;;;;11.51;80.01;100485.10;107799;1271;96139;-75
2022/07/17 03:08:04;;;;;;;7.90;4.10;;;;;;;11.54;80.00;100490.23;107697;1271;138756;-75
2022/07/17 03:10:37;;;;;;;12.60;4.60;;;;;;;11.56;79.96;100498.15;107836;1270;105835;-75
2022/07/17 03:13:10;;;;;;;7.80;3.90;;;;;;;11.60;79.94;100500.64;107678;1271;138977;-76
2022/07/17 03:15:42;;;;;;;8.90;4.40;;;;;;;11.64;79.94;100509.02;106633;1271;97845;-77
2022/07/17 03:18:15;;;;;;;6.10;4.20;;;;;;;11.68;79.95;100508.75;106098;1272;138863;-78
2022/07/17 03:20:47;;;;;;;9.40;3.60;;;;;;;11.72;79.93;100513.33;106200;1271;114274;-78
2022/07/17 03:23:20;;;;;;;10.10;4.20;;;;;;;11.74;79.72;100518.98;106326;1271;108933;-76
2022/07/17 03:25:52;;;;;;;10.60;4.00;;;;;;;11.77;79.65;100524.13;107416;1271;139179;-77
2022/07/17 03:28:25;;;;;;;7.20;4.40;;;;;;;11.81;79.69;100524.88;106185;1271;97842;-76
2022/07/17 03:30:57;;;;;;;11.10;5.30;;;;;;;11.85;79.69;100528.23;107637;1271;138370;-77
2022/07/17 03:33:30;;;;;;;8.70;4.00;;;;;;;11.89;79.58;100535.61;106198;1271;111578;-76
2022/07/17 03:36:02;;;;;;;7.60;4.00;;;;;;;11.93;79.62;100534.08;107772;1271;108924;-77
2022/07/17 03:38:35;;;;;;;8.20;4.10;;;;;;;11.98;79.60;100536.16;106481;1271;107211;-77
2022/07/17 03:41:08;;;;;;;7.10;4.30;;;;;;;12.02;79.44;100537.95;106211;1271;98589;-76
2022/07/17 03:43:40;;;;;;;11.20;3.90;;;;;;;12.06;79.48;100543.05;106129;1270;138907;-76
2022/07/17 03:46:14;;;;;;;7.50;4.30;;;;;;;12.10;79.41;100543.45;106257;1271;112394;-76
2022/07/17 03:48:47;;;;;;;8.80;3.70;;;;;;;12.16;79.32;100540.45;106179;1271;138923;-76
2022/07/17 03:51:20;;;;;;;7.70;4.10;;;;;;;12.21;79.30;100541.69;107771;1271;107737;-77
2022/07/17 03:53:52;;;;;;;7.50;4.50;;;;;;;12.27;79.32;100539.39;107238;1271;98532;-77
2022/07/17 03:56:25;;;;;;;10.00;5.00;;;;;;;12.34;79.27;100536.86;107701;1271;137261;-77
2022/07/17 03:58:57;;;;;;;13.00;4.50;;;;;;;12.43;78.98;100535.86;107756;1271;112414;-77
2022/07/17 04:01:30;;;;;;;8.30;3.80;;;;;;;12.51;78.76;100533.11;107653;1271;138797;-77
2022/07/17 04:04:04;;;;;;;7.60;4.20;;;;;;;12.58;78.45;100534.29;107751;1271;108087;-77
2022/07/17 04:06:36;;;;;;;7.10;4.30;;;;;;;12.62;78.38;100537.63;107681;1271;139143;-77
2022/07/17 04:09:08;;;;;;;10.40;3.70;;;;;;;12.68;78.30;100542.10;107770;1271;96101;-77
2022/07/17 04:11:41;;;;;;;8.00;3.70;;;;;;;12.72;78.04;100543.53;107782;1271;112455;-76
2022/07/17 04:14:13;;;;;;;10.50;3.80;;;;;;;12.76;77.93;100545.67;107718;1270;138566;-77
2022/07/17 04:16:45;;;;;;;5.50;3.40;;;;;;;12.80;77.75;100549.36;107732;1271;107895;-77
2022/07/17 04:19:17;;;;;;;8.30;3.60;;;;;;;12.85;77.61;100552.85;107618;1271;139510;-77
2022/07/17 04:21:50;;;;;;;6.20;3.70;;;;;;;12.88;77.47;100552.17;107811;1271;96014;-78
2022/07/17 04:24:22;;;;;;;9.40;4.80;;;;;;;12.93;77.36;100555.00;107692;1271;138868;-77
2022/07/17 04:26:55;;;;;;;9.00;3.20;;;;;;;13.00;77.17;100557.68;107780;1271;107534;-76
2022/07/17 04:29:27;;;;;;;5.90;3.30;;;;;;;13.10;77.31;100559.75;107761;1271;108952;-77
2022/07/17 04:32:00;;;;;;;6.10;3.50;;;;;;;13.28;77.23;100563.45;106447;1272;138782;-76
2022/07/17 04:34:34;;;;;;;9.00;3.10;;;;;;;13.50;76.89;100563.85;106175;1271;97814;-77
2022/07/17 04:37:06;;;;;;;8.30;3.00;;;;;;;13.68;76.53;100563.13;107693;1271;138586;-77
2022/07/17 04:39:38;;;;;;;5.10;3.00;;;;;;;13.88;75.98;100563.91;106214;1271;108777;-77
2022/07/17 04:42:11;;;;;;;4.90;2.50;;;;;;;14.08;75.57;100558.67;106614;1271;139476;-76
2022/07/17 04:44:43;;;;;;;6.90;2.70;;;;;;;14.28;74.91;100565.00;107405;1271;97811;-77
2022/07/17 04:47:16;;;;;;;8.80;2.60;;;;;;;14.47;74.49;100560.38;107785;1271;96141;-77
2022/07/17 04:49:48;;;;;;;4.90;2.70;;;;;;;14.74;74.13;100565.17;107692;1271;138437;-77
2022/07/17 04:52:21;;;;;;;5.70;2.60;;;;;;;14.92;73.19;100564.89;106466;1271;108849;-76
2022/07/17 04:54:53;;;;;;;6.20;3.60;;;;;;;15.00;72.75;100561.89;107082;1271;139216;-77
2022/07/17 04:57:25;;;;;;;9.60;2.50;;;;;;;15.15;72.67;100570.14;106645;1271;97740;-77
2022/07/17 04:59:57;;;;;;;7.20;2.50;;;;;;;15.36;72.14;100569.48;107790;1271;96061;-78
2022/07/17 05:02:30;;;;;;;10.40;2.60;;;;;;;15.41;71.62;100573.98;107656;1271;138207;-78
2022/07/17 05:05:03;;;;;;;5.90;2.40;;;;;;;15.39;71.34;100576.70;107747;1271;108771;-77
2022/07/17 05:07:35;;;;;;;5.80;3.00;;;;;;;15.40;71.19;100582.63;107642;1271;139622;-78
2022/07/17 05:10:09;;;;;;;6.40;2.60;;;;;;;15.49;71.04;100583.64;107733;1271;95858;-78
2022/07/17 05:12:42;;;;;;;6.60;3.10;;;;;;;15.57;70.58;100580.94;106483;1271;140098;-76
2022/07/17 05:15:14;;;;;;;10.00;2.90;;;;;;;15.57;70.07;100584.63;106361;1270;111497;-77
2022/07/17 05:17:47;;;;;;;4.50;2.20;;;;;;;15.66;70.04;100584.95;107810;1271;108662;-76
2022/07/17 05:20:19;;;;;;;6.80;2.30;;;;;;;15.90;69.77;100589.77;107533;1273;140884;-76
2022/07/17 05:22:53;;;;;;;6.70;2.50;;;;;;;16.17;69.40;100581.75;107793;1271;95888;-76
2022/07/17 05:25:26;;;;;;;7.80;2.50;;;;;;;16.44;68.87;100588.80;107688;1271;138778;-77
2022/07/17 05:27:59;;;;;;;11.80;2.30;;;;;;;16.71;68.35;100583.90;107750;1271;112496;-77
2022/07/17 05:30:31;;;;;;;8.50;2.10;;;;;;;16.87;67.25;100588.51;107105;1271;139264;-78
2022/07/17 05:33:04;;;;;;;6.20;1.80;;;;;;;16.93;66.81;100589.45;106382;1271;108813;-77
2022/07/17 05:35:36;;;;;;;10.50;1.90;;;;;;;17.07;66.55;100588.66;107776;1271;96099;-78
2022/07/17 05:38:10;;;;;;;8.60;2.20;;;;;;;17.18;66.23;100593.90;106654;1271;138552;-78
2022/07/17 05:40:44;;;;;;;9.50;2.30;;;;;;;17.38;66.04;100596.83;107760;1271;112389;-77
2022/07/17 05:43:16;;;;;;;5.70;1.90;;;;;;;17.39;65.52;100600.66;107648;1270;139593;-78
2022/07/17 05:45:48;;;;;;;9.50;2.20;;;;;;;17.26;65.10;100605.61;107753;1271;108968;-77
2022/07/17 05:48:20;;;;;;;5.90;2.20;;;;;;;17.03;65.04;100601.55;107615;1271;139771;-77
2022/07/17 05:50:54;;;;;;;7.00;2.30;;;;;;;16.87;65.30;100606.44;107120;1271;96404;-77
2022/07/17 05:53:27;;;;;;;9.80;2.90;;;;;;;16.83;65.51;100611.52;107713;1271;112542;-77
2022/07/17 05:56:00;;;;;;;8.00;2.30;;;;;;;16.81;65.49;100616.56;106190;1271;138823;-76
2022/07/17 05:58:32;;;;;;;11.00;2.90;;;;;;;16.70;65.35;100623.48;107324;1271;109360;-77
2022/07/17 06:01:05;;;;;;;8.00;2.70;;;;;;;16.57;65.86;100623.77;106096;1271;138905;-77
2022/07/17 06:03:37;;;;;;;6.00;2.30;;;;;;;16.64;66.06;100626.05;106193;1271;97816;-76
2022/07/17 06:06:09;;;;;;;5.80;2.00;;;;;;;17.83;66.16;100628.06;106156;1270;138956;-76
2022/07/17 06:08:43;;;;;;;7.80;2.10;;;;;;;18.78;63.11;100629.30;107792;1271;108993;-78
2022/07/17 06:11:15;;;;;;;6.30;2.70;;;;;;;18.79;61.94;100629.59;106676;1271;107819;-77
2022/07/17 06:13:47;;;;;;;6.10;2.00;;;;;;;18.80;61.76;100630.09;106254;1271;138092;-77
2022/07/17 06:16:19;;;;;;;5.40;1.90;;;;;;;18.83;61.20;100633.42;107574;1270;96423;-76
2022/07/17 06:18:52;;;;;;;7.70;2.00;;;;;;;18.51;61.18;100631.92;106136;1271;137856;-77
2022/07/17 06:21:25;;;;;;;9.00;2.30;;;;;;;18.16;61.25;100633.47;106217;1270;108765;-77
2022/07/17 06:23:58;;;;;;;7.10;2.00;;;;;;;17.89;61.47;100641.13;107788;1270;107906;-78
2022/07/17 06:26:30;;;;;;;7.10;2.00;;;;;;;17.77;61.80;100644.30;107686;1271;139224;-78
2022/07/17 06:29:03;;;;;;;7.30;2.20;;;;;;;17.67;61.87;100638.48;107822;1271;96369;-78
2022/07/17 06:31:35;;;;;;;8.00;2.40;;;;;;;17.63;61.83;100641.91;107711;1271;137631;-78
2022/07/17 06:34:07;;;;;;;5.50;3.10;;;;;;;17.71;62.07;100646.39;107808;1271;108852;-76
2022/07/17 06:36:40;;;;;;;8.50;2.90;;;;;;;18.09;62.13;100652.14;107696;1271;139136;-78
2022/07/17 06:39:13;;;;;;;4.60;2.50;;;;;;;19.15;60.75;100648.73;107677;1271;97853;-76
2022/07/17 06:41:45;;;;;;;6.40;2.30;;;;;;;20.54;60.22;100642.20;106217;1271;97793;-77
2022/07/17 06:44:20;;;;;;;4.40;2.40;;;;;;;22.62;58.03;100637.91;107651;1271;138120;-77
2022/07/17 06:46:52;;;;;;;5.10;2.30;;;;;;;24.28;54.64;100634.65;106476;1273;108279;-77
2022/07/17 06:49:25;;;;;;;5.80;2.10;;;;;;;24.76;51.57;100636.14;106385;1271;139348;-75
2022/07/17 06:51:58;;;;;;;8.40;2.70;;;;;;;23.97;50.48;100643.27;106222;1271;97848;-76
2022/07/17 06:54:31;;;;;;;6.30;2.70;;;;;;;22.88;50.78;100647.35;106123;1273;138320;-77
2022/07/17 06:57:03;;;;;;;7.40;2.50;;;;;;;22.31;52.11;100647.56;106186;1271;112485;-74
2022/07/17 06:59:36;;;;;;;7.90;3.60;;;;;;;23.04;51.41;100644.73;106425;1271;108935;-77
2022/07/17 07:02:08;;;;;;;5.90;2.30;;;;;;;22.99;50.88;100649.71;106253;1271;138067;-76
2022/07/17 07:04:43;;;;;;;8.60;2.10;;;;;;;23.11;51.41;100650.16;106181;1271;98001;-77
2022/07/17 07:07:15;;;;;;;4.00;2.10;;;;;;;23.56;50.16;100649.33;106107;1271;138719;-76
2022/07/17 07:09:49;;;;;;;4.80;2.40;;;;;;;23.01;50.34;100650.80;107598;1271;112506;-76
2022/07/17 07:12:21;;;;;;;5.20;2.30;;;;;;;22.34;50.68;100657.30;106718;1271;138130;-75
2022/07/17 07:14:54;;;;;;;6.90;3.00;;;;;;;21.64;51.41;100657.09;107743;1271;107815;-76
2022/07/17 07:17:26;;;;;;;8.30;2.70;;;;;;;21.09;52.37;100659.56;106532;1271;97837;-75
2022/07/17 07:20:00;;;;;;;5.40;2.90;;;;;;;20.95;53.25;100656.59;106148;1271;138040;-78
2022/07/17 07:22:32;;;;;;;11.10;2.60;;;;;;;21.71;52.86;100660.48;106738;1271;112460;-75
2022/07/17 07:25:06;;;;;;;5.80;2.40;;;;;;;22.43;52.31;100659.09;106637;1273;139579;-75
2022/07/17 07:27:39;;;;;;;7.50;2.60;;;;;;;23.37;51.52;100663.25;107719;1270;108057;-77
2022/07/17 07:30:13;;;;;;;6.60;2.50;;;;;;;24.07;49.59;100666.28;106171;1270;139243;-75
2022/07/17 07:32:45;;;;;;;7.30;2.40;;;;;;;24.03;49.11;100670.86;107814;1270;96099;-76
2022/07/17 07:35:18;;;;;;;5.50;2.60;;;;;;;23.73;48.38;100674.17;107381;1271;112835;-76
2022/07/17 07:37:50;;;;;;;5.80;2.30;;;;;;;23.40;49.27;100675.08;106290;1271;138410;-76
2022/07/17 07:40:23;;;;;;;6.30;2.20;;;;;;;24.31;48.83;100680.16;106213;1271;108470;-77
2022/07/17 07:42:56;;;;;;;5.20;2.00;;;;;;;24.53;47.79;100677.78;107704;1270;137987;-77
2022/07/17 07:45:30;;;;;;;6.40;2.10;;;;;;;25.39;47.28;100671.50;107462;1271;97844;-78
2022/07/17 07:48:03;;;;;;;5.90;2.00;;;;;;;25.55;46.11;100676.44;106241;1271;112864;-76
2022/07/17 07:50:37;;;;;;;4.90;2.40;;;;;;;25.54;46.04;100675.02;107729;1270;108053;-78
2022/07/17 07:53:09;;;;;;;2.60;1.60;;;;;;;26.52;45.70;100678.95;106249;1271;107748;-77
2022/07/17 07:55:42;;;;;;;9.30;2.70;;;;;;;27.54;44.76;100677.20;107695;1271;137987;-77
2022/07/17 07:58:15;;;;;;;7.50;1.90;;;;;;;28.01;42.93;100674.92;107819;1270;95931;-77
2022/07/17 08:00:49;;;;;;;5.10;1.80;;;;;;;27.70;42.28;100677.85;107675;1271;138438;-77
2022/07/17 08:03:22;;;;;;;8.50;1.90;;;;;;;28.17;42.09;100680.30;107163;1270;108900;-77
2022/07/17 08:05:58;;;;;;;4.50;1.90;;;;;;;28.65;40.93;100680.70;106878;1271;109497;-76
2022/07/17 08:08:30;;;;;;;7.70;2.30;;;;;;;28.96;40.79;100678.27;106059;1273;138217;-76
2022/07/17 08:11:10;;;;;;;5.00;2.10;;;;;;;28.94;39.75;100678.42;106744;1270;97839;-77
2022/07/17 08:13:43;;;;;;;5.70;3.20;;;;;;;28.67;40.52;100680.69;106188;1271;138408;-76
2022/07/17 08:16:16;;;;;;;4.30;1.90;;;;;;;29.65;40.36;100675.02;106896;1271;108877;-75
2022/07/17 08:18:49;;;;;;;5.50;1.80;;;;;;;29.65;38.66;100669.83;107123;1270;139212;-76
2022/07/17 08:21:22;;;;;;;5.20;1.30;;;;;;;29.99;38.35;100671.17;106326;1271;98349;-77
2022/07/17 08:23:54;;;;;;;8.00;1.80;;;;;;;29.98;37.63;100667.66;106196;1270;97813;-77
2022/07/17 08:26:27;;;;;;;5.60;1.80;;;;;;;30.37;37.62;100669.55;106084;1271;137822;-76
2022/07/17 08:29:01;;;;;;;6.60;1.60;;;;;;;30.63;37.27;100667.66;107808;1270;107734;-77
2022/07/17 08:31:33;;;;;;;8.00;1.70;;;;;;;30.74;36.41;100670.42;107696;1271;139154;-77
2022/07/17 08:34:06;;;;;;;3.50;1.50;;;;;;;30.74;36.34;100665.58;107797;1271;96098;-77
2022/07/17 08:36:38;;;;;;;2.80;1.30;;;;;;;31.32;36.50;100663.32;107706;1271;137928;-76
2022/07/17 08:39:10;;;;;;;5.60;1.60;;;;;;;31.65;35.10;100662.06;107791;1271;112559;-77
2022/07/17 08:41:43;;;;;;;6.10;1.60;;;;;;;30.91;34.78;100665.66;107822;1270;108869;-77
2022/07/17 08:44:15;;;;;;;3.10;1.50;;;;;;;29.81;35.58;100671.83;107476;1271;137783;-77
2022/07/17 08:46:49;;;;;;;8.80;1.70;;;;;;;29.50;36.06;100672.48;106197;1270;97948;-77
2022/07/17 08:49:23;;;;;;;5.50;1.40;;;;;;;29.72;36.02;100674.56;106125;1270;137782;-76
2022/07/17 08:51:57;;;;;;;2.50;1.40;;;;;;;29.26;35.72;100671.70;106239;1271;112667;-76
2022/07/17 08:54:29;;;;;;;2.30;1.20;;;;;;;29.19;35.85;100675.53;106101;1271;138546;-76
2022/07/17 08:57:03;;;;;;;3.20;1.30;;;;;;;29.86;36.48;100671.72;106234;1269;108726;-76
2022/07/17 08:59:36;;;;;;;3.50;1.10;;;;;;;30.67;35.44;100671.73;107767;1271;96073;-77
2022/07/17 09:02:09;;;;;;;8.30;1.30;;;;;;;31.01;34.33;100670.63;106859;1271;137782;-77
2022/07/17 09:04:43;;;;;;;3.40;1.30;;;;;;;31.30;34.23;100671.31;106957;1271;112624;-78
2022/07/17 09:07:16;;;;;;;4.20;1.30;;;;;;;31.57;33.21;100671.05;107252;1271;137913;-77
2022/07/17 09:09:54;;;;;;;13.30;1.50;;;;;;;31.59;32.19;100673.25;106371;1271;108902;-76
2022/07/17 09:12:31;;;;;;;4.40;1.50;;;;;;;31.18;32.21;100675.96;106442;1271;138386;-76
2022/07/17 09:15:17;;;;;;;3.20;1.20;;;;;;;30.96;32.55;100679.23;107696;1271;95954;-77
2022/07/17 09:17:54;;;;;;;4.10;1.40;;;;;;;30.55;32.05;100683.80;107761;1271;113619;-78
2022/07/17 09:20:26;;;;;;;3.10;1.30;;;;;;;30.23;32.87;100682.13;107086;1271;137847;-77
2022/07/17 09:23:02;;;;;;;5.10;1.20;;;;;;;29.89;32.68;100684.98;106392;1270;108950;-77
2022/07/17 09:25:42;;;;;;;4.10;1.30;;;;;;;29.51;33.15;100683.53;107657;1271;137751;-78
2022/07/17 09:28:16;;;;;;;2.70;1.30;;;;;;;29.65;33.54;100686.51;105997;1271;329844;-77
2022/07/17 09:30:51;;;;;;;3.60;1.30;;;;;;;29.81;33.54;100689.95;106217;1271;139499;-77
2022/07/17 09:33:26;;;;;;;3.10;1.20;;;;;;;29.61;33.08;100687.86;107777;1271;108885;-78
2022/07/17 09:36:08;;;;;;;6.80;1.40;;;;;;;29.64;32.65;100684.42;107794;1271;108970;-77
2022/07/17 09:38:43;;;;;;;5.30;2.00;;;;;;;29.28;32.68;100690.16;106872;1271;97922;-77
2022/07/17 09:41:17;;;;;;;5.60;1.60;;;;;;;28.56;32.62;100697.02;107835;1271;96093;-77
2022/07/17 09:43:52;;;;;;;5.20;1.70;;;;;;;28.06;33.69;100695.02;107636;1271;138284;-77
2022/07/17 09:46:28;;;;;;;2.60;1.10;;;;;;;28.46;34.21;100691.44;107790;1271;107246;-77
2022/07/17 09:49:02;;;;;;;4.00;1.30;;;;;;;28.89;34.22;100691.70;107419;1270;139014;-77
2022/07/17 09:51:37;;;;;;;3.90;1.20;;;;;;;29.46;33.43;100678.84;106250;1271;98097;-78
2022/07/17 09:54:11;;;;;;;2.20;1.30;;;;;;;29.30;32.29;100679.95;107667;1270;137870;-77
2022/07/17 09:56:44;;;;;;;4.60;1.30;;;;;;;28.72;32.76;100690.49;107787;1270;112020;-77
2022/07/17 09:59:18;;;;;;;2.90;1.20;;;;;;;28.18;32.74;100690.74;107784;1271;109859;-77
2022/07/17 10:01:50;;;;;;;3.50;1.50;;;;;;;27.38;32.99;100692.52;107691;1270;138496;-76
2022/07/17 10:04:24;;;;;;;2.50;1.10;;;;;;;26.66;33.95;100701.60;107764;1270;96021;-76
2022/07/17 10:06:56;;;;;;;5.60;1.50;;;;;;;26.03;34.47;100705.52;107705;1271;139064;-76
2022/07/17 10:09:29;;;;;;;1.90;1.20;;;;;;;25.36;35.51;100707.89;107793;1270;112566;-75
2022/07/17 10:12:02;;;;;;;2.20;1.20;;;;;;;24.75;36.16;100710.80;107808;1270;109252;-76
2022/07/17 10:14:38;;;;;;;2.60;1.40;;;;;;;24.51;36.99;100709.44;107772;1270;108838;-77
2022/07/17 10:17:12;;;;;;;4.70;1.40;;;;;;;24.98;37.96;100710.58;107757;1270;96288;-77
2022/07/17 10:19:50;;;;;;;5.40;1.40;;;;;;;25.67;37.66;100703.72;107554;1271;139372;-76
2022/07/17 10:22:23;;;;;;;3.00;1.30;;;;;;;26.25;37.14;100703.73;107793;1271;112511;-77
2022/07/17 10:24:57;;;;;;;3.60;1.20;;;;;;;26.75;36.50;100705.18;107032;1271;138065;-76
2022/07/17 10:27:31;;;;;;;3.40;1.20;;;;;;;27.12;35.99;100699.85;106186;1271;109282;-76
2022/07/17 10:30:08;;;;;;;6.70;1.30;;;;;;;26.92;34.90;100696.48;107787;1270;96091;-76
2022/07/17 10:32:51;;;;;;;3.90;1.50;;;;;;;26.64;35.18;100702.71;106328;1271;97697;-76
2022/07/17 10:35:24;;;;;;;4.10;1.10;;;;;;;26.52;35.39;100704.27;106243;1270;112453;-76
2022/07/17 10:38:10;;;;;;;4.30;1.20;;;;;;;26.28;35.11;100704.30;106164;1271;137965;-76
2022/07/17 10:40:43;;;;;;;2.70;1.00;;;;;;;25.75;35.86;100708.88;106210;1271;108956;-76
2022/07/17 10:43:15;;;;;;;3.00;1.40;;;;;;;25.44;36.01;100702.88;106136;1271;140008;-76
2022/07/17 10:45:48;;;;;;;7.70;1.40;;;;;;;25.55;36.87;100703.41;106248;1271;97830;-75
2022/07/17 10:48:24;;;;;;;3.70;1.50;;;;;;;25.34;36.71;100707.52;107459;1270;138119;-76
2022/07/17 10:50:58;;;;;;;2.50;1.30;;;;;;;25.22;37.07;100708.50;106533;1271;108469;-76
2022/07/17 10:53:35;;;;;;;4.50;1.60;;;;;;;24.96;37.07;100710.91;106235;1271;108339;-77
2022/07/17 10:56:12;;;;;;;2.20;1.20;;;;;;;24.75;37.40;100717.90;107669;1271;137818;-78
2022/07/17 10:58:45;;;;;;;4.00;1.40;;;;;;;24.44;37.45;100719.78;106582;1270;97947;-77
2022/07/17 11:01:20;;;;;;;5.10;1.90;;;;;;;24.12;37.97;100722.00;107697;1270;138822;-77
2022/07/17 11:03:54;;;;;;;3.80;1.50;;;;;;;23.83;38.16;100719.77;107788;1270;108826;-77
2022/07/17 11:06:30;;;;;;;4.00;1.70;;;;;;;23.54;38.76;100717.05;107666;1271;138604;-77
2022/07/17 11:09:05;;;;;;;4.30;1.50;;;;;;;23.30;38.97;100722.14;107806;1270;96051;-78
2022/07/17 11:11:43;;;;;;;3.40;2.10;;;;;;;23.28;39.51;100717.35;107803;1271;96139;-78
2022/07/17 11:14:18;;;;;;;6.90;2.90;;;;;;;23.45;39.65;100711.02;107680;1270;139687;-78
2022/07/17 11:16:53;;;;;;;8.30;2.40;;;;;;;23.46;39.72;100710.71;107801;1271;108847;-77
2022/07/17 11:19:27;;;;;;;4.90;2.00;;;;;;;23.37;39.68;100707.71;107623;1271;138400;-78
2022/07/17 11:22:03;;;;;;;6.20;1.50;;;;;;;23.20;39.51;100708.38;107800;1270;95937;-78
2022/07/17 11:24:45;;;;;;;3.00;1.60;;;;;;;22.85;39.26;100715.80;106575;1270;138073;-77
2022/07/17 11:27:24;;;;;;;1.90;1.50;;;;;;;22.57;39.53;100721.48;106246;1271;112440;-77
2022/07/17 11:29:58;;;;;;;3.90;1.30;;;;;;;22.35;39.93;100720.11;106171;1271;108666;-78
2022/07/17 11:32:37;;;;;;;5.20;2.30;;;;;;;22.22;40.37;100724.26;106096;1270;138341;-76
2022/07/17 11:35:20;;;;;;;4.50;1.30;;;;;;;22.07;40.51;100728.55;107789;1270;96606;-78
2022/07/17 11:38:13;;;;;;;2.90;1.40;;;;;;;21.90;40.47;100728.48;107667;1270;137670;-78